createdAt,value
2017-06-25T00:01:14.082Z,8.53
2017-06-25T00:03:41.704Z,7.63
2017-06-25T00:06:09.171Z,8.87
2017-06-25T00:08:36.665Z,11.80
2017-06-25T00:11:04.894Z,13.20
2017-06-25T00:13:32.390Z,9.40
2017-06-25T00:15:59.882Z,6.90
2017-06-25T00:18:27.421Z,9.73
2017-06-25T00:20:55.663Z,9.53
2017-06-25T00:23:23.240Z,12.87
2017-06-25T00:25:50.799Z,10.67
2017-06-25T00:28:19.068Z,13.43
2017-06-25T00:30:46.550Z,12.33
2017-06-25T00:33:14.786Z,21.20
2017-06-25T00:35:42.265Z,17.47
2017-06-25T00:38:09.710Z,17.10
2017-06-25T00:40:37.171Z,10.27
2017-06-25T00:43:04.730Z,13.23
2017-06-25T00:45:32.206Z,19.83
2017-06-25T00:48:00.495Z,14.70
2017-06-25T00:50:28.018Z,11.00
2017-06-25T00:53:01.253Z,9.50
2017-06-25T00:55:28.774Z,9.70
2017-06-25T00:57:56.334Z,14.70
2017-06-25T01:00:24.574Z,17.20
2017-06-25T01:02:52.050Z,18.57
2017-06-25T01:05:19.552Z,15.63
2017-06-25T01:07:47.021Z,18.90
2017-06-25T01:10:14.507Z,16.23
2017-06-25T01:12:41.970Z,11.77
2017-06-25T01:15:09.439Z,19.60
2017-06-25T01:17:36.966Z,13.00
2017-06-25T01:20:04.463Z,19.20
2017-06-25T01:22:32.026Z,17.33
2017-06-25T01:24:59.524Z,17.47
2017-06-25T01:27:27.038Z,18.00
2017-06-25T01:29:56.374Z,18.27
2017-06-25T01:32:23.850Z,18.20
2017-06-25T01:34:51.306Z,20.67
2017-06-25T01:37:18.806Z,14.77
2017-06-25T01:39:46.290Z,14.77
2017-06-25T01:42:14.591Z,23.10
2017-06-25T01:44:42.095Z,16.47
2017-06-25T01:47:09.654Z,22.00
2017-06-25T01:49:37.218Z,17.23
2017-06-25T01:52:04.686Z,16.00
2017-06-25T01:54:32.928Z,19.50
2017-06-25T01:57:00.402Z,18.87
2017-06-25T01:59:27.858Z,19.20
2017-06-25T02:01:55.334Z,18.17
2017-06-25T02:04:23.599Z,17.80
2017-06-25T02:06:51.823Z,19.27
2017-06-25T02:09:20.325Z,20.03
2017-06-25T02:11:47.801Z,19.97
2017-06-25T02:14:15.257Z,16.33
2017-06-25T02:16:42.841Z,28.00
2017-06-25T02:19:10.326Z,23.70
2017-06-25T02:21:37.834Z,25.73
2017-06-25T02:24:05.397Z,22.23
2017-06-25T02:26:32.850Z,20.73
2017-06-25T02:29:00.357Z,28.47
2017-06-25T02:31:27.831Z,27.97
2017-06-25T02:33:55.303Z,21.50
2017-06-25T02:36:22.774Z,24.47
2017-06-25T02:38:50.331Z,20.90
2017-06-25T02:41:17.905Z,22.43
2017-06-25T02:43:46.136Z,20.50
2017-06-25T02:46:13.627Z,17.50
2017-06-25T02:48:41.191Z,22.63
2017-06-25T02:51:08.654Z,18.10
2017-06-25T02:53:36.908Z,20.40
2017-06-25T02:56:04.366Z,26.93
2017-06-25T02:58:31.827Z,25.77
2017-06-25T03:00:59.310Z,22.30
2017-06-25T03:03:27.526Z,18.23
2017-06-25T03:05:54.982Z,19.70
2017-06-25T03:08:22.604Z,24.07
2017-06-25T03:10:50.054Z,15.40
2017-06-25T03:13:17.514Z,21.00
2017-06-25T03:15:45.002Z,14.30
2017-06-25T03:18:12.498Z,14.70
2017-06-25T03:20:40.013Z,12.53
2017-06-25T03:23:07.519Z,13.23
2017-06-25T03:25:35.000Z,12.20
2017-06-25T03:28:03.254Z,14.20
2017-06-25T03:30:30.807Z,14.47
2017-06-25T03:32:58.263Z,12.20
2017-06-25T03:35:25.719Z,13.53
2017-06-25T03:37:53.198Z,14.63
2017-06-25T03:40:21.430Z,14.63
2017-06-25T03:42:48.906Z,13.80
2017-06-25T03:45:16.394Z,16.63
2017-06-25T03:47:43.887Z,10.00
2017-06-25T03:50:11.339Z,15.43
2017-06-25T03:52:38.838Z,15.80
2017-06-25T03:55:06.302Z,10.40
2017-06-25T03:57:33.758Z,16.27
2017-06-25T04:00:01.314Z,16.40
2017-06-25T04:02:28.869Z,13.90
2017-06-25T04:04:56.326Z,12.10
2017-06-25T04:07:23.826Z,14.57
2017-06-25T04:09:51.297Z,10.83
2017-06-25T04:12:18.806Z,12.70
2017-06-25T04:14:47.079Z,13.87
2017-06-25T04:17:15.304Z,14.40
2017-06-25T04:19:42.823Z,15.80
2017-06-25T04:22:11.066Z,17.77
2017-06-25T04:24:38.588Z,11.83
2017-06-25T04:27:06.092Z,14.33
2017-06-25T04:29:33.570Z,19.93
2017-06-25T04:32:01.822Z,15.63
2017-06-25T04:34:29.382Z,17.30
2017-06-25T04:36:56.932Z,14.43
2017-06-25T04:39:24.390Z,24.57
2017-06-25T04:41:51.854Z,15.20
2017-06-25T04:44:19.336Z,17.03
2017-06-25T04:46:46.870Z,16.30
2017-06-25T04:49:14.426Z,13.60
2017-06-25T04:51:41.893Z,18.07
2017-06-25T04:54:10.131Z,15.97
2017-06-25T04:56:37.592Z,15.30
2017-06-25T04:59:05.167Z,15.20
2017-06-25T05:01:32.734Z,20.73
2017-06-25T05:04:00.298Z,17.03
2017-06-25T05:06:27.851Z,14.50
2017-06-25T05:08:55.310Z,17.47
2017-06-25T05:11:22.775Z,21.43
2017-06-25T05:13:51.030Z,16.13
2017-06-25T05:16:19.022Z,13.57
2017-06-25T05:18:47.246Z,16.20
2017-06-25T05:21:14.739Z,12.57
2017-06-25T05:23:42.198Z,12.00
2017-06-25T05:26:09.662Z,15.40
2017-06-25T05:28:38.926Z,14.97
2017-06-25T05:31:06.397Z,13.03
2017-06-25T05:33:33.847Z,13.00
2017-06-25T05:36:01.434Z,20.53
2017-06-25T05:38:29.656Z,11.27
2017-06-25T05:40:57.162Z,9.43
2017-06-25T05:43:25.411Z,11.93
2017-06-25T05:45:52.878Z,13.63
2017-06-25T05:48:20.446Z,10.67
2017-06-25T05:50:47.937Z,11.40
2017-06-25T05:53:15.518Z,12.17
2017-06-25T05:55:42.972Z,12.80
2017-06-25T05:58:10.523Z,14.80
2017-06-25T06:00:38.046Z,22.43
2017-06-25T06:03:06.291Z,21.70
2017-06-25T06:05:33.882Z,25.10
2017-06-25T06:08:01.428Z,17.20
2017-06-25T06:10:28.902Z,19.87
2017-06-25T06:12:57.147Z,17.07
2017-06-25T06:15:24.614Z,19.00
2017-06-25T06:17:52.066Z,16.03
2017-06-25T06:20:19.584Z,18.40
2017-06-25T06:22:47.130Z,18.10
2017-06-25T06:25:14.658Z,14.27
2017-06-25T06:27:43.957Z,21.00
2017-06-25T06:30:12.183Z,14.23
2017-06-25T06:32:39.686Z,12.70
2017-06-25T06:35:07.994Z,10.20
2017-06-25T06:37:35.522Z,11.57
2017-06-25T06:40:03.791Z,10.60
2017-06-25T06:42:31.358Z,9.77
2017-06-25T06:44:58.893Z,10.53
2017-06-25T06:47:26.386Z,8.53
2017-06-25T06:49:54.654Z,12.20
2017-06-25T06:52:22.892Z,14.00
2017-06-25T06:54:50.342Z,9.83
2017-06-25T06:57:17.844Z,15.63
2017-06-25T06:59:45.354Z,7.17
2017-06-25T07:02:12.801Z,9.23
2017-06-25T07:04:40.271Z,7.93
2017-06-25T07:07:07.730Z,10.30
2017-06-25T07:09:35.221Z,5.93
2017-06-25T07:12:02.782Z,6.50
2017-06-25T07:14:31.008Z,5.90
2017-06-25T07:16:58.508Z,7.37
2017-06-25T07:19:26.082Z,7.17
2017-06-25T07:21:54.330Z,8.40
2017-06-25T07:24:21.794Z,6.07
2017-06-25T07:26:49.274Z,6.83
2017-06-25T07:29:17.546Z,7.13
2017-06-25T07:31:45.807Z,7.37
2017-06-25T07:34:14.082Z,7.60
2017-06-25T07:36:41.547Z,8.40
2017-06-25T07:39:09.770Z,6.03
2017-06-25T07:41:37.280Z,6.47
2017-06-25T07:44:05.527Z,3.80
2017-06-25T07:46:33.125Z,6.37
2017-06-25T07:49:01.369Z,7.20
2017-06-25T07:51:28.915Z,4.30
2017-06-25T07:53:56.396Z,6.90
2017-06-25T07:56:24.674Z,5.30
2017-06-25T07:58:52.224Z,5.17
2017-06-25T08:01:19.682Z,5.27
2017-06-25T08:03:47.156Z,5.90
2017-06-25T08:06:15.386Z,7.67
2017-06-25T08:08:42.838Z,4.70
2017-06-25T08:11:10.318Z,6.50
2017-06-25T08:13:37.774Z,5.60
2017-06-25T08:16:05.246Z,6.40
2017-06-25T08:18:32.716Z,5.50
2017-06-25T08:21:00.948Z,5.00
2017-06-25T08:23:28.407Z,8.80
2017-06-25T08:25:56.011Z,8.93
2017-06-25T08:28:23.563Z,6.37
2017-06-25T08:30:51.827Z,11.50
2017-06-25T08:33:20.070Z,4.80
2017-06-25T08:35:47.530Z,12.13
2017-06-25T08:38:14.986Z,4.33
2017-06-25T08:40:42.491Z,6.03
2017-06-25T08:43:10.022Z,6.53
2017-06-25T08:45:37.681Z,6.80
2017-06-25T08:48:05.248Z,5.00
2017-06-25T08:50:33.474Z,11.40
2017-06-25T08:53:00.986Z,4.90
2017-06-25T08:55:29.238Z,5.23
2017-06-25T08:57:56.726Z,6.60
2017-06-25T09:00:24.974Z,9.30
2017-06-25T09:02:52.451Z,5.40
2017-06-25T09:05:20.674Z,9.33
2017-06-25T09:07:48.166Z,4.83
2017-06-25T09:10:15.642Z,12.00
2017-06-25T09:12:43.898Z,8.13
2017-06-25T09:15:11.354Z,6.00
2017-06-25T09:17:38.834Z,7.47
2017-06-25T09:20:07.058Z,8.20
2017-06-25T09:22:34.554Z,6.47
2017-06-25T09:25:02.822Z,8.50
2017-06-25T09:27:30.294Z,6.03
2017-06-25T09:29:58.542Z,5.50
2017-06-25T09:32:26.005Z,8.43
2017-06-25T09:34:53.467Z,6.10
2017-06-25T09:37:20.919Z,8.43
2017-06-25T09:39:48.386Z,8.77
2017-06-25T09:42:16.650Z,8.10
2017-06-25T09:44:44.118Z,5.83
2017-06-25T09:47:12.410Z,5.60
2017-06-25T09:49:40.630Z,4.20
2017-06-25T09:52:08.114Z,4.80
2017-06-25T09:54:35.654Z,3.83
2017-06-25T09:57:03.115Z,5.67
2017-06-25T09:59:30.590Z,4.50
2017-06-25T10:01:58.064Z,9.63
2017-06-25T10:04:26.338Z,7.57
2017-06-25T10:06:54.586Z,6.60
2017-06-25T10:09:22.190Z,7.30
2017-06-25T10:11:49.646Z,6.30
2017-06-25T10:14:17.107Z,6.30
2017-06-25T10:16:44.622Z,3.80
2017-06-25T10:19:12.083Z,4.57
2017-06-25T10:21:39.565Z,8.10
2017-06-25T10:24:07.822Z,4.00
2017-06-25T10:26:36.076Z,6.10
2017-06-25T10:29:03.530Z,6.30
2017-06-25T10:31:31.007Z,4.83
2017-06-25T10:33:58.569Z,10.90
2017-06-25T10:36:26.064Z,3.20
2017-06-25T10:38:53.566Z,5.23
2017-06-25T10:41:22.046Z,6.40
2017-06-25T10:43:49.503Z,9.10
2017-06-25T10:46:17.198Z,5.30
2017-06-25T10:48:44.733Z,2.20
2017-06-25T10:51:12.194Z,5.80
2017-06-25T10:53:40.478Z,3.00
2017-06-25T10:56:08.759Z,4.77
2017-06-25T10:58:36.301Z,4.63
2017-06-25T11:01:03.938Z,4.57
2017-06-25T11:03:31.401Z,6.47
2017-06-25T11:05:58.883Z,3.73
2017-06-25T11:08:26.434Z,7.60
2017-06-25T11:10:53.918Z,7.70
2017-06-25T11:13:21.457Z,3.67
2017-06-25T11:15:49.818Z,4.03
2017-06-25T11:18:17.286Z,4.90
2017-06-25T11:20:44.846Z,7.83
2017-06-25T11:23:12.718Z,6.47
2017-06-25T11:25:40.266Z,3.10
2017-06-25T11:28:07.726Z,4.50
2017-06-25T11:30:35.290Z,6.30
2017-06-25T11:33:03.514Z,7.97
2017-06-25T11:35:31.018Z,3.17
2017-06-25T11:37:59.314Z,6.80
2017-06-25T11:40:26.846Z,5.70
2017-06-25T11:42:54.331Z,8.93
2017-06-25T11:45:21.901Z,7.87
2017-06-25T11:47:49.422Z,5.03
2017-06-25T11:50:16.982Z,10.03
2017-06-25T11:52:44.492Z,6.03
2017-06-25T11:55:11.943Z,8.17
2017-06-25T11:57:39.506Z,4.73
2017-06-25T12:00:07.018Z,6.40
2017-06-25T12:02:35.252Z,2.77
2017-06-25T12:05:02.747Z,7.00
2017-06-25T12:07:30.296Z,6.53
2017-06-25T12:09:57.768Z,5.47
2017-06-25T12:12:26.032Z,5.30
2017-06-25T12:14:54.323Z,13.50
2017-06-25T12:17:22.601Z,3.27
2017-06-25T12:19:50.814Z,6.63
2017-06-25T12:22:18.338Z,3.13
2017-06-25T12:24:46.566Z,4.87
2017-06-25T12:27:14.058Z,4.73
2017-06-25T12:29:41.598Z,6.53
2017-06-25T12:32:09.174Z,4.20
2017-06-25T12:34:36.657Z,5.40
2017-06-25T12:37:04.196Z,9.63
2017-06-25T12:39:32.470Z,5.20
2017-06-25T12:41:59.961Z,8.20
2017-06-25T12:44:27.489Z,9.60
2017-06-25T12:46:55.750Z,7.57
2017-06-25T12:49:24.022Z,7.50
2017-06-25T12:51:51.518Z,7.20
2017-06-25T12:54:19.066Z,6.57
2017-06-25T12:56:47.316Z,9.50
2017-06-25T12:59:14.854Z,7.67
2017-06-25T13:01:42.307Z,7.53
2017-06-25T13:04:09.758Z,6.63
2017-06-25T13:06:37.262Z,6.83
2017-06-25T13:09:05.482Z,6.60
2017-06-25T13:11:32.939Z,7.20
2017-06-25T13:14:00.435Z,9.93
2017-06-25T13:16:28.699Z,6.67
2017-06-25T13:18:56.158Z,5.07
2017-06-25T13:21:23.650Z,8.20
2017-06-25T13:23:51.170Z,8.73
2017-06-25T13:26:18.630Z,3.93
2017-06-25T13:28:46.245Z,7.67
2017-06-25T13:31:13.760Z,10.20
2017-06-25T13:33:41.237Z,6.27
2017-06-25T13:36:08.780Z,13.03
2017-06-25T13:38:37.023Z,7.03
2017-06-25T13:41:04.525Z,7.33
2017-06-25T13:43:32.062Z,9.67
2017-06-25T13:46:00.295Z,6.60
2017-06-25T13:48:27.787Z,6.70
2017-06-25T13:50:55.341Z,7.00
2017-06-25T13:53:22.831Z,10.73
2017-06-25T13:55:50.363Z,5.27
2017-06-25T13:58:17.951Z,12.13
2017-06-25T14:00:45.398Z,9.03
2017-06-25T14:03:13.627Z,8.97
2017-06-25T14:05:41.163Z,9.90
2017-06-25T14:08:08.648Z,7.60
2017-06-25T14:10:36.390Z,10.70
2017-06-25T14:13:04.170Z,9.60
2017-06-25T14:15:31.635Z,10.23
2017-06-25T14:17:59.086Z,6.87
2017-06-25T14:20:26.567Z,9.50
2017-06-25T14:22:54.050Z,11.07
2017-06-25T14:25:21.494Z,9.23
2017-06-25T14:27:49.756Z,10.27
2017-06-25T14:30:17.306Z,7.23
2017-06-25T14:32:44.866Z,8.00
2017-06-25T14:35:12.459Z,8.67
2017-06-25T14:37:41.019Z,7.70
2017-06-25T14:40:10.921Z,7.67
2017-06-25T14:42:38.703Z,12.20
2017-06-25T14:45:06.971Z,7.43
2017-06-25T14:47:35.239Z,4.47
2017-06-25T14:50:02.968Z,7.07
2017-06-25T14:52:30.467Z,6.90
2017-06-25T14:54:58.698Z,10.10
2017-06-25T14:57:26.175Z,8.93
2017-06-25T14:59:53.658Z,13.87
2017-06-25T15:02:21.918Z,10.83
2017-06-25T15:04:49.398Z,7.37
2017-06-25T15:07:16.863Z,9.90
2017-06-25T15:09:44.319Z,10.03
2017-06-25T15:12:11.912Z,8.10
2017-06-25T15:14:39.404Z,8.80
2017-06-25T15:17:06.862Z,7.70
2017-06-25T15:19:34.334Z,9.20
2017-06-25T15:22:02.618Z,6.97
2017-06-25T15:24:30.839Z,4.93
2017-06-25T15:26:58.580Z,6.33
2017-06-25T15:29:26.095Z,7.07
2017-06-25T15:31:53.561Z,12.30
2017-06-25T15:34:21.833Z,7.23
2017-06-25T15:36:49.337Z,8.60
2017-06-25T15:39:16.817Z,7.90
2017-06-25T15:41:44.330Z,9.20
2017-06-25T15:44:11.909Z,9.53
2017-06-25T15:46:39.371Z,9.00
2017-06-25T15:49:07.227Z,7.80
2017-06-25T15:51:34.723Z,13.70
2017-06-25T15:54:02.377Z,8.53
2017-06-25T15:56:29.963Z,7.50
2017-06-25T15:58:57.426Z,10.33
2017-06-25T16:01:25.005Z,8.90
2017-06-25T16:03:52.533Z,6.50
2017-06-25T16:06:20.033Z,4.80
2017-06-25T16:08:47.485Z,6.00
2017-06-25T16:11:14.960Z,6.53
2017-06-25T16:13:42.410Z,5.10
2017-06-25T16:16:09.915Z,4.23
2017-06-25T16:18:37.500Z,5.30
2017-06-25T16:21:05.748Z,5.70
2017-06-25T16:23:33.215Z,9.77
2017-06-25T16:26:01.468Z,5.90
2017-06-25T16:28:28.947Z,9.97
2017-06-25T16:30:57.170Z,8.90
2017-06-25T16:33:24.678Z,11.97
2017-06-25T16:35:52.950Z,5.17
2017-06-25T16:38:20.504Z,8.33
2017-06-25T16:40:48.270Z,7.37
2017-06-25T16:43:15.824Z,5.33
2017-06-25T16:45:43.285Z,6.97
2017-06-25T16:48:10.768Z,6.37
2017-06-25T16:50:38.355Z,7.03
2017-06-25T16:53:05.863Z,11.40
2017-06-25T16:55:33.347Z,9.00
2017-06-25T16:58:00.805Z,6.83
2017-06-25T17:00:28.385Z,9.90
2017-06-25T17:02:55.945Z,8.97
2017-06-25T17:05:23.413Z,6.73
2017-06-25T17:07:50.873Z,2.77
2017-06-25T17:10:18.660Z,8.17
2017-06-25T17:12:46.234Z,6.57
2017-06-25T17:15:14.515Z,5.27
2017-06-25T17:17:43.019Z,9.40
2017-06-25T17:20:10.476Z,9.10
2017-06-25T17:22:37.930Z,6.47
2017-06-25T17:25:05.410Z,2.40
2017-06-25T17:27:32.906Z,10.20
2017-06-25T17:30:00.382Z,7.67
2017-06-25T17:32:28.638Z,10.17
2017-06-25T17:34:56.190Z,7.93
2017-06-25T17:37:23.672Z,8.17
2017-06-25T17:39:51.900Z,6.57
2017-06-25T17:42:19.391Z,10.23
2017-06-25T17:44:46.843Z,8.33
2017-06-25T17:47:14.507Z,12.33
2017-06-25T17:49:42.037Z,6.67
2017-06-25T17:52:09.499Z,8.00
2017-06-25T17:54:36.958Z,8.60
2017-06-25T17:57:04.697Z,8.93
2017-06-25T17:59:32.195Z,12.83
2017-06-25T18:01:59.691Z,7.87
2017-06-25T18:04:27.233Z,6.87
2017-06-25T18:06:55.466Z,8.50
2017-06-25T18:09:22.981Z,7.67
2017-06-25T18:11:50.454Z,13.60
2017-06-25T18:14:17.964Z,12.07
2017-06-25T18:16:46.228Z,13.80
2017-06-25T18:19:13.714Z,9.03
2017-06-25T18:21:41.369Z,5.23
2017-06-25T18:24:09.738Z,7.53
2017-06-25T18:26:37.215Z,7.87
2017-06-25T18:29:04.676Z,9.00
2017-06-25T18:31:32.212Z,8.97
2017-06-25T18:34:00.470Z,4.47
2017-06-25T18:36:27.926Z,8.67
2017-06-25T18:38:55.442Z,7.07
2017-06-25T18:41:22.898Z,8.03
2017-06-25T18:43:50.398Z,10.13
2017-06-25T18:46:17.958Z,13.43
2017-06-25T18:48:45.422Z,6.67
2017-06-25T18:51:12.979Z,8.57
2017-06-25T18:53:40.494Z,6.10
2017-06-25T18:56:07.987Z,15.77
2017-06-25T18:58:35.446Z,6.80
2017-06-25T19:01:02.938Z,19.47
2017-06-25T19:03:30.466Z,16.07
2017-06-25T19:05:58.603Z,17.10
2017-06-25T19:08:26.226Z,7.53
2017-06-25T19:10:53.719Z,14.23
2017-06-25T19:13:21.214Z,13.67
2017-06-25T19:15:48.783Z,10.67
2017-06-25T19:18:17.035Z,18.07
2017-06-25T19:20:44.507Z,11.10
2017-06-25T19:23:12.067Z,10.13
2017-06-25T19:25:40.327Z,13.80
2017-06-25T19:28:07.894Z,8.50
2017-06-25T19:30:35.365Z,9.20
2017-06-25T19:33:02.822Z,7.87
2017-06-25T19:35:31.058Z,8.33
2017-06-25T19:37:58.523Z,8.60
2017-06-25T19:40:25.983Z,7.80
2017-06-25T19:42:53.739Z,11.60
2017-06-25T19:45:24.674Z,6.30
2017-06-25T19:47:52.326Z,5.40
2017-06-25T19:50:21.939Z,14.73
2017-06-25T19:52:51.310Z,7.57
2017-06-25T19:55:18.826Z,9.20
2017-06-25T19:57:46.409Z,12.20
2017-06-25T20:00:13.977Z,10.63
2017-06-25T20:02:41.434Z,12.43
2017-06-25T20:05:08.950Z,8.67
2017-06-25T20:07:36.410Z,11.83
2017-06-25T20:10:03.971Z,9.00
2017-06-25T20:12:31.502Z,10.87
2017-06-25T20:14:58.995Z,9.47
2017-06-25T20:17:27.262Z,10.80
2017-06-25T20:19:54.835Z,12.90
2017-06-25T20:22:23.070Z,11.37
2017-06-25T20:24:50.660Z,8.93
2017-06-25T20:27:18.222Z,6.57
2017-06-25T20:29:46.462Z,9.23
2017-06-25T20:32:13.953Z,13.17
2017-06-25T20:34:41.459Z,11.33
2017-06-25T20:37:08.922Z,9.37
2017-06-25T20:39:36.396Z,14.87
2017-06-25T20:42:03.879Z,7.57
2017-06-25T20:44:32.154Z,12.17
2017-06-25T20:47:00.522Z,9.70
2017-06-25T20:49:27.982Z,9.47
2017-06-25T20:51:55.458Z,13.03
2017-06-25T20:54:23.752Z,6.77
2017-06-25T20:56:51.238Z,12.77
2017-06-25T20:59:18.711Z,11.10
2017-06-25T21:01:46.209Z,10.10
2017-06-25T21:04:14.553Z,11.13
2017-06-25T21:06:42.053Z,9.43
2017-06-25T21:09:09.574Z,7.47
2017-06-25T21:11:37.043Z,6.67
2017-06-25T21:14:05.431Z,9.73
2017-06-25T21:16:33.670Z,16.40
2017-06-25T21:19:01.151Z,10.43
2017-06-25T21:21:28.629Z,7.33
2017-06-25T21:23:56.090Z,17.87
2017-06-25T21:26:23.615Z,8.60
2017-06-25T21:28:51.177Z,12.47
2017-06-25T21:31:18.658Z,12.83
2017-06-25T21:33:46.198Z,11.10
2017-06-25T21:36:14.458Z,9.73
2017-06-25T21:38:41.933Z,15.00
2017-06-25T21:41:10.207Z,11.90
2017-06-25T21:43:38.454Z,10.27
2017-06-25T21:46:05.914Z,14.37
2017-06-25T21:48:33.397Z,12.70
2017-06-25T21:51:01.650Z,14.53
2017-06-25T21:53:29.136Z,18.40
2017-06-25T21:55:57.407Z,14.33
2017-06-25T21:58:26.666Z,15.37
2017-06-25T22:00:54.142Z,14.87
2017-06-25T22:03:21.602Z,14.40
2017-06-25T22:05:49.078Z,21.40
2017-06-25T22:08:17.351Z,14.40
2017-06-25T22:10:44.890Z,14.00
2017-06-25T22:13:12.374Z,20.33
2017-06-25T22:15:40.646Z,14.67
2017-06-25T22:18:08.918Z,18.37
2017-06-25T22:20:37.211Z,19.47
2017-06-25T22:23:04.748Z,19.10
2017-06-25T22:25:32.973Z,12.20
2017-06-25T22:28:01.462Z,20.57
2017-06-25T22:30:28.950Z,20.57
2017-06-25T22:32:56.419Z,21.30
2017-06-25T22:35:24.669Z,20.83
2017-06-25T22:37:52.124Z,20.47
2017-06-25T22:40:19.578Z,16.50
2017-06-25T22:42:47.153Z,18.17
2017-06-25T22:45:14.606Z,19.10
2017-06-25T22:47:42.062Z,18.30
2017-06-25T22:50:09.545Z,17.20
2017-06-25T22:52:37.790Z,19.03
2017-06-25T22:55:05.354Z,23.87
2017-06-25T22:57:32.921Z,25.60
2017-06-25T23:00:00.371Z,17.87
2017-06-25T23:02:27.838Z,15.93
2017-06-25T23:04:56.095Z,21.33
2017-06-25T23:07:23.558Z,24.13
2017-06-25T23:09:51.120Z,20.20
2017-06-25T23:12:18.678Z,23.03
2017-06-25T23:14:47.026Z,22.10
2017-06-25T23:17:14.498Z,25.67
2017-06-25T23:19:42.075Z,20.87
2017-06-25T23:22:09.638Z,23.00
2017-06-25T23:24:37.911Z,12.27
2017-06-25T23:27:05.389Z,18.57
2017-06-25T23:29:33.611Z,18.80
2017-06-25T23:32:01.083Z,16.70
2017-06-25T23:34:28.554Z,30.13
2017-06-25T23:36:56.823Z,19.40
2017-06-25T23:39:25.302Z,17.87
2017-06-25T23:41:52.867Z,15.23
2017-06-25T23:44:20.434Z,12.97
2017-06-25T23:46:48.718Z,22.73
2017-06-25T23:49:16.962Z,18.47
2017-06-25T23:51:44.472Z,13.00
2017-06-25T23:54:11.922Z,20.13
2017-06-25T23:56:39.388Z,21.07
2017-06-25T23:59:06.903Z,14.10
